Time,TemperatureF,DewpointF,PressureIn,WindDirection,WindDirectionDegrees,WindSpeedMPH,WindSpeedGustMPH,Humidity,HourlyPrecipIn,Conditions,Clouds,dailyrainin,SolarRadiationWatts/m^2,SoftwareType,DateUTC
2013-01-14 00:50:00,-22.0,-28.0,30.04,SE,146,1.0,3.0,76,-99.99,,,-99.99,0.000000,,2013-01-14 08:50:00,
2013-01-14 01:50:00,-23.0,-28.0,30.06,South,175,3.0,5.0,75,-99.99,,,-99.99,0.000000,,2013-01-14 09:50:00,
2013-01-14 02:50:00,-24.0,-30.0,30.07,South,180,2.0,4.0,74,-99.99,,,-99.99,0.000000,,2013-01-14 10:50:00,
2013-01-14 03:50:00,-25.0,-31.0,30.05,SE,134,1.0,2.0,73,-99.99,,,-99.99,0.000000,,2013-01-14 11:50:00,
2013-01-14 04:50:00,-26.0,-32.0,30.06,South,174,2.0,5.0,72,-99.99,,,-99.99,0.000000,,2013-01-14 12:50:00,
2013-01-14 05:50:00,-29.0,-35.0,30.07,South,180,4.0,5.0,70,-99.99,,,-99.99,0.000000,,2013-01-14 13:50:00,
2013-01-14 06:50:00,-29.0,-35.0,30.10,SSE,161,3.0,5.0,71,-99.99,,,-99.99,0.000000,,2013-01-14 14:50:00,
2013-01-14 07:50:00,-26.0,-32.0,30.12,South,170,4.0,6.0,72,-99.99,,,-99.99,40.000000,,2013-01-14 15:50:00,
2013-01-14 08:50:00,-14.0,-20.0,30.13,SSW,196,4.0,5.0,74,-99.99,,,-99.99,240.000000,,2013-01-14 16:50:00,
2013-01-14 09:50:00,-4.0,-11.0,30.15,South,187,3.0,4.0,69,-99.99,,,-99.99,380.000000,,2013-01-14 17:50:00,
2013-01-14 10:50:00,2.0,-7.0,30.12,WNW,297,2.0,4.0,65,-99.99,,,-99.99,560.000000,,2013-01-14 18:50:00,
2013-01-14 11:50:00,2.0,-6.0,30.11,NNW,334,5.0,9.0,70,-99.99,,,-99.99,560.000000,,2013-01-14 19:50:00,
2013-01-14 12:50:00,4.0,-4.0,30.11,NNW,336,10.0,15.0,69,-99.99,,,-99.99,510.000000,,2013-01-14 20:50:00,
2013-01-14 13:50:00,5.0,-4.0,30.12,NNW,328,9.0,14.0,67,-99.99,,,-99.99,410.000000,,2013-01-14 21:50:00,
2013-01-14 14:50:00,6.0,-4.0,30.13,NNW,334,13.0,17.0,64,-99.99,,,-99.99,270.000000,,2013-01-14 22:50:00,
2013-01-14 15:50:00,5.0,-4.0,30.15,NNW,330,7.0,10.0,66,-99.99,,,-99.99,120.000000,,2013-01-14 23:50:00,
2013-01-14 16:50:00,3.0,-5.0,30.17,NNW,335,4.0,8.0,70,-99.99,,,-99.99,0.000000,,2013-01-15 00:50:00,
2013-01-14 17:50:00,3.0,-4.0,30.18,ENE,59,2.0,5.0,70,-99.99,,,-99.99,0.000000,,2013-01-15 01:50:00,
2013-01-14 18:50:00,-2.0,-8.0,30.19,East,87,4.0,5.0,75,-99.99,,,-99.99,0.000000,,2013-01-15 02:50:00,
2013-01-14 19:50:00,-4.0,-11.0,30.19,NNW,336,0.0,2.0,72,-99.99,,,-99.99,0.000000,,2013-01-15 03:50:00,
2013-01-14 20:50:00,-10.0,-15.0,30.20,South,173,2.0,4.0,78,-99.99,,,-99.99,0.000000,,2013-01-15 04:50:00,
2013-01-14 22:50:00,-8.0,-14.0,30.22,South,178,5.0,7.0,77,-99.99,,,-99.99,0.000000,,2013-01-15 06:50:00,
2013-01-14 23:50:00,-6.0,-11.0,30.22,South,170,4.0,6.0,79,-99.99,,,-99.99,0.000000,,2013-01-15 07:50:00,